Accueil
METAR-TAF:

METAR-TAF

Aéroports :

Midway, États-Unis

latitude: 28-13N, longitude: 177-22W, altitude: 4 m

Observation

Le bulletin a été fait il y a 4 minutes, à 06:56 UTC
Vent 9 kt de est/nord-est
Température 24°C
Humidité 74%
Pression 1021 hPa
Visibilité: 16.1 km
Quelques nuages à une hauteur de 2500 ft

METAR: PMDY 270656Z AUTO 06009KT 10SM FEW025 24/19 A3016 RMK AO2 SLP214 T02390189

Heure: 21:00 (07:00 UTC)

Prévision

Le bulletin a été fait il y a 1 heure et 31 minutes, à 05:29 UTC
Prévision valable du 27 à 06 UTC au 28 à 06 UTC
Vent 9 kt de est/nord-est
Visibilité: 10 km
Nuages épars à une hauteur de 2500 ft
Temporairement
du 27 à 06 UTC au 27 à 09 UTC
Nuages fragmentés à une hauteur de 2500 ft

TAF: PMDY 270529Z 2706/2806 07009KT P6SM SCT025 TEMPO 2706/2709 BKN025

Observations et prévisions météorologiques de plus de 4000 aéroports (messages METAR et TAF).

Les stations disponibles sont représentées par des disques jaunes et rouges sur la carte.

Passer la souris dessus pour voir le nom de la station.

Cliquer dessus pour voir les observations et prévisions météorologiques.

Pour changer de carte: cliquez sur les boutons verts avec une croix noire pour zoomer, sur le bouton vert avec un tiret pour effectuer un zoom arrière, ou sur les flèches vertes pour les cartes adjacentes.


METAR-TAF: